Kezdőlap
METAR-TAF:

METAR-TAF

Repülőterek :

Belmar-Farmingdale, New Jersey, Amerikai Egyesült Államok

földrajzi szélesség: 40-11N, földrajzi hosszúság: 074-08W, magasság: 48 m

Jelenlegi meteorológiai megfigyelések

A jelentés 48 perccel ezelõtt készült, 13:56 UTC
Nyugat-északnyugati szél 9 kt
Hőmérséklet -6°C
Páratartalom 68%
Légköri nyomás 1032 hPa
Látótávolság: 16.1 km
Derült ég

METAR: KBLM 211356Z AUTO 30009KT 10SM CLR M06/M11 A3047 RMK AO2 SLP322 T10561111 FZRANO

Idő: 09:44 (14:44 UTC)


TAF: hiányzik

Meteorológiai megfigyelések és előrejelzések több, mint 4000 repülőtéren (METAR és TAF jelentéseket).

A térképen piros és sárga pontok jelzik az elérhető meteorológiai állomásokat.

Mozgassa az egeret a pont fölött, hogy megjelenjen az állomás neve.

Azután kattintson az időjárási megfigyelések és előrejelzések megtekintéséhez.

A térkép megváltoztatása: kattintson a fekete keresztel jelölt zöld gombra ráközelítéshez, a vonallal jelölt zöld gombra távolításhoz, vagy a zöld nyilakra a szomszédos térképek eléréséhez.


METAR-TAF: